Time;durP1;ratioP1;P1;durP2;ratioP2;P2;SDS_P1;SDS_P2;PMS_P1;PMS_P2;Temp;Humidity;BMP_temperature;BMP_pressure;BME280_temperature;BME280_humidity;BME280_pressure;Samples;Min_cycle;Max_cycle;Signal;HPM_P1;HPM_P2
2021/08/16 00:01:52;;;;;;;0.20;0.20;;;22.30;99.90;;;;;;5031142;28;20275;-82
2021/08/16 00:04:18;;;;;;;0.57;0.50;;;22.20;99.90;;;;;;5030761;28;20564;-83
2021/08/16 00:06:43;;;;;;;0.50;0.50;;;22.30;99.90;;;;;;5029110;28;20203;-83
2021/08/16 00:09:10;;;;;;;0.47;0.47;;;22.30;99.90;;;;;;5012338;28;20186;-82
2021/08/16 00:11:36;;;;;;;0.23;0.23;;;22.30;99.90;;;;;;5013546;28;20682;-81
2021/08/16 00:14:02;;;;;;;0.47;0.30;;;22.40;99.90;;;;;;5012864;28;20224;-83
2021/08/16 00:16:29;;;;;;;0.70;0.70;;;22.40;99.90;;;;;;5027346;28;20552;-82
2021/08/16 00:18:55;;;;;;;0.50;0.50;;;22.20;99.90;;;;;;5012686;28;20206;-83
2021/08/16 00:21:20;;;;;;;0.23;0.23;;;22.30;99.90;;;;;;5030807;28;20190;-83
2021/08/16 00:23:46;;;;;;;0.20;0.20;;;22.30;99.90;;;;;;5013413;28;20629;-82
2021/08/16 00:26:13;;;;;;;0.30;0.30;;;22.40;99.90;;;;;;5030139;28;20736;-83
2021/08/16 00:28:38;;;;;;;0.30;0.30;;;22.40;99.90;;;;;;5030502;28;20281;-83
2021/08/16 00:31:04;;;;;;;0.40;0.40;;;22.30;99.90;;;;;;5031155;28;20281;-82
2021/08/16 00:33:29;;;;;;;0.20;0.20;;;22.30;99.90;;;;;;5013499;28;20226;-81
2021/08/16 00:35:55;;;;;;;0.30;0.30;;;22.30;99.90;;;;;;5012498;28;20655;-83
2021/08/16 00:38:21;;;;;;;0.23;0.23;;;22.20;99.90;;;;;;5031026;28;20632;-83
2021/08/16 00:40:46;;;;;;;0.30;0.30;;;22.20;99.90;;;;;;5030412;28;20699;-82
2021/08/16 00:43:12;;;;;;;0.30;0.30;;;22.20;99.90;;;;;;5030741;28;20225;-83
2021/08/16 00:45:37;;;;;;;0.30;0.30;;;21.90;99.90;;;;;;5029466;28;20225;-83
2021/08/16 00:48:03;;;;;;;0.20;0.20;;;21.80;99.90;;;;;;5013639;28;20190;-83
2021/08/16 00:50:29;;;;;;;1.07;0.57;;;21.30;99.90;;;;;;5032216;28;20198;-82
2021/08/16 00:52:56;;;;;;;0.37;0.30;;;21.30;99.90;;;;;;5017068;28;20571;-82
2021/08/16 00:55:22;;;;;;;0.10;0.10;;;21.20;99.90;;;;;;5032946;28;20189;-83
2021/08/16 00:57:47;;;;;;;0.20;0.20;;;21.20;99.90;;;;;;5016799;28;20194;-83
2021/08/16 01:00:13;;;;;;;0.27;0.27;;;21.20;99.90;;;;;;5016140;28;20264;-82
2021/08/16 01:02:41;;;;;;;0.37;0.37;;;21.10;99.90;;;;;;5034928;28;20215;-82
2021/08/16 01:05:11;;;;;;;0.17;0.17;;;21.10;99.90;;;;;;5033008;28;20321;-83
2021/08/16 01:07:38;;;;;;;0.10;0.10;;;21.10;99.90;;;;;;5034096;28;20185;-84
2021/08/16 01:10:05;;;;;;;0.50;0.40;;;21.20;99.90;;;;;;5034647;28;20178;-84
2021/08/16 01:12:33;;;;;;;0.20;0.20;;;21.30;99.90;;;;;;5035928;28;20540;-82
2021/08/16 01:15:00;;;;;;;0.10;0.10;;;21.30;99.90;;;;;;5011084;28;20602;-82
2021/08/16 01:17:26;;;;;;;0.10;0.10;;;21.30;99.90;;;;;;5031657;28;20214;-83
2021/08/16 01:19:52;;;;;;;0.20;0.20;;;21.50;99.90;;;;;;5015755;28;20656;-82
2021/08/16 01:22:19;;;;;;;0.40;0.37;;;21.60;99.90;;;;;;5016881;28;20226;-82
2021/08/16 01:24:44;;;;;;;0.40;0.40;;;21.60;99.90;;;;;;5012305;28;20244;-83
2021/08/16 01:27:11;;;;;;;0.60;0.40;;;21.60;99.90;;;;;;5015858;28;20209;-82
2021/08/16 01:29:37;;;;;;;0.70;0.40;;;21.60;99.90;;;;;;5016135;28;20277;-81
2021/08/16 01:32:04;;;;;;;1.50;0.30;;;21.60;99.90;;;;;;5033540;28;20199;-82
2021/08/16 01:34:30;;;;;;;0.30;0.30;;;21.60;99.90;;;;;;5033194;28;20178;-81
2021/08/16 01:36:56;;;;;;;0.70;0.70;;;21.60;99.90;;;;;;5033568;28;20200;-81
2021/08/16 01:39:22;;;;;;;0.40;0.40;;;21.60;99.90;;;;;;5033652;28;20193;-83
2021/08/16 01:41:48;;;;;;;0.43;0.37;;;21.50;99.90;;;;;;5015125;28;20231;-81
2021/08/16 01:44:22;;;;;;;0.20;0.20;;;21.40;99.90;;;;;;5016145;28;20210;-82
2021/08/16 01:46:48;;;;;;;0.77;0.77;;;21.50;99.90;;;;;;5020683;28;20276;-82
2021/08/16 01:49:14;;;;;;;0.70;0.70;;;21.60;99.90;;;;;;5016280;28;20206;-81
2021/08/16 01:51:41;;;;;;;0.20;0.20;;;21.60;99.90;;;;;;5014510;28;20186;-81
2021/08/16 01:54:09;;;;;;;0.30;0.30;;;21.60;99.90;;;;;;5029604;28;20269;-82
2021/08/16 01:56:35;;;;;;;0.77;0.63;;;21.60;99.90;;;;;;5015864;28;20186;-82
2021/08/16 01:59:01;;;;;;;1.03;0.63;;;21.60;99.90;;;;;;5033684;28;20221;-82
2021/08/16 02:01:27;;;;;;;0.83;0.67;;;21.60;99.90;;;;;;5016025;28;20267;-82
2021/08/16 02:03:52;;;;;;;1.07;0.50;;;21.50;99.90;;;;;;5032615;28;20285;-81
2021/08/16 02:06:19;;;;;;;0.50;0.50;;;21.50;99.90;;;;;;5030383;28;20687;-82
2021/08/16 02:08:44;;;;;;;1.10;0.53;;;21.50;99.90;;;;;;5033321;28;20183;-82
2021/08/16 02:11:11;;;;;;;1.60;0.60;;;21.50;99.90;;;;;;5034162;28;20194;-81
2021/08/16 02:13:37;;;;;;;0.87;0.40;;;21.40;99.90;;;;;;5034523;28;20212;-81
2021/08/16 02:16:03;;;;;;;0.73;0.50;;;21.30;99.90;;;;;;5015816;28;20186;-81
2021/08/16 02:18:29;;;;;;;0.20;0.20;;;21.30;99.90;;;;;;5015323;28;20196;-82
2021/08/16 02:20:54;;;;;;;1.73;0.57;;;21.30;99.90;;;;;;5032475;28;20277;-81
2021/08/16 02:23:20;;;;;;;0.30;0.30;;;21.20;99.90;;;;;;5032653;28;20218;-82
2021/08/16 02:25:46;;;;;;;0.80;0.80;;;21.20;99.90;;;;;;5015130;28;20304;-82
2021/08/16 02:28:16;;;;;;;1.10;0.70;;;21.10;99.90;;;;;;5015837;28;20186;-82
2021/08/16 02:30:42;;;;;;;0.40;0.40;;;21.20;99.90;;;;;;5015432;28;20208;-82
2021/08/16 02:33:07;;;;;;;0.70;0.70;;;21.20;99.90;;;;;;5032883;28;20289;-82
2021/08/16 02:35:33;;;;;;;0.43;0.43;;;21.10;99.90;;;;;;5032567;28;20671;-82
2021/08/16 02:37:58;;;;;;;0.53;0.53;;;21.10;99.90;;;;;;5014796;28;20186;-82
2021/08/16 02:40:24;;;;;;;4.83;0.70;;;21.10;99.90;;;;;;5016600;28;20186;-82
2021/08/16 02:42:49;;;;;;;1.17;1.13;;;21.10;99.90;;;;;;5014987;28;20670;-82
2021/08/16 02:45:15;;;;;;;0.70;0.70;;;21.10;99.90;;;;;;5033146;28;20567;-82
2021/08/16 02:47:41;;;;;;;2.63;0.83;;;21.00;99.90;;;;;;5017845;28;20191;-82
2021/08/16 02:50:07;;;;;;;0.40;0.40;;;20.90;99.90;;;;;;5014773;28;20550;-82
2021/08/16 02:52:32;;;;;;;0.50;0.50;;;20.90;99.90;;;;;;5031590;28;20203;-82
2021/08/16 02:54:59;;;;;;;0.30;0.30;;;20.80;99.90;;;;;;5029700;28;20612;-82
2021/08/16 02:57:25;;;;;;;0.40;0.40;;;20.80;99.90;;;;;;5032006;28;20183;-83
2021/08/16 02:59:51;;;;;;;0.47;0.47;;;20.80;99.90;;;;;;5014897;28;20187;-82
2021/08/16 03:02:16;;;;;;;2.20;1.33;;;20.80;99.90;;;;;;5014776;28;20706;-81
2021/08/16 03:04:42;;;;;;;0.60;0.60;;;20.80;99.90;;;;;;5033014;28;20186;-82
2021/08/16 03:07:09;;;;;;;0.63;0.63;;;20.70;99.90;;;;;;5015003;28;20610;-82
2021/08/16 03:09:35;;;;;;;1.20;0.73;;;20.70;99.90;;;;;;5014554;28;20236;-82
2021/08/16 03:12:00;;;;;;;0.40;0.40;;;20.60;99.90;;;;;;5011266;28;20683;-82
2021/08/16 03:14:27;;;;;;;0.63;0.63;;;20.50;99.90;;;;;;5011342;28;20201;-82
2021/08/16 03:16:52;;;;;;;0.37;0.37;;;20.50;99.90;;;;;;5014705;28;20273;-82
2021/08/16 03:19:18;;;;;;;0.33;0.33;;;20.50;99.90;;;;;;5014532;28;20277;-82
2021/08/16 03:21:43;;;;;;;0.40;0.40;;;20.40;99.90;;;;;;5033193;28;20202;-82
2021/08/16 03:24:10;;;;;;;2.47;0.60;;;20.40;99.90;;;;;;5014884;28;20186;-82
2021/08/16 03:26:35;;;;;;;0.50;0.47;;;20.40;99.90;;;;;;5032269;28;20741;-82
2021/08/16 03:29:01;;;;;;;0.70;0.70;;;20.40;99.90;;;;;;5013776;28;20214;-81
2021/08/16 03:31:26;;;;;;;0.37;0.37;;;20.40;99.90;;;;;;5033045;28;20178;-80
2021/08/16 03:33:53;;;;;;;0.47;0.47;;;20.30;99.90;;;;;;5014597;28;20690;-85
2021/08/16 03:36:18;;;;;;;0.50;0.50;;;20.30;99.90;;;;;;5013439;28;20236;-84
2021/08/16 03:38:44;;;;;;;0.50;0.50;;;20.30;99.90;;;;;;5003383;28;20190;-83
2021/08/16 03:41:10;;;;;;;0.30;0.30;;;20.30;99.90;;;;;;5011668;28;20179;-83
2021/08/16 03:43:35;;;;;;;0.23;0.23;;;20.30;99.90;;;;;;5015496;28;20198;-83
2021/08/16 03:46:01;;;;;;;0.20;0.20;;;20.20;99.90;;;;;;5025011;28;20202;-84
2021/08/16 03:48:26;;;;;;;1.37;0.50;;;20.20;99.90;;;;;;5009959;28;20190;-82
2021/08/16 03:50:52;;;;;;;0.20;0.20;;;20.10;99.90;;;;;;5013063;28;20220;-84
2021/08/16 03:53:18;;;;;;;0.10;0.10;;;20.10;99.90;;;;;;5011432;28;20198;-83
2021/08/16 03:55:43;;;;;;;0.20;0.20;;;20.00;99.90;;;;;;5012601;28;20178;-84
2021/08/16 03:58:09;;;;;;;0.73;0.50;;;19.90;99.90;;;;;;5004149;28;20593;-83
2021/08/16 04:00:35;;;;;;;0.20;0.20;;;19.90;99.90;;;;;;5011895;28;20635;-84
2021/08/16 04:03:01;;;;;;;0.20;0.20;;;19.90;99.90;;;;;;5010248;28;20548;-83
2021/08/16 04:05:27;;;;;;;0.40;0.40;;;19.80;99.90;;;;;;5013593;28;20198;-83
2021/08/16 04:07:53;;;;;;;0.30;0.30;;;19.80;99.90;;;;;;5011097;28;20179;-84
2021/08/16 04:10:19;;;;;;;0.50;0.50;;;19.70;99.90;;;;;;5012590;28;20179;-84
2021/08/16 04:12:45;;;;;;;0.70;0.70;;;19.70;99.90;;;;;;5012168;28;20675;-83
2021/08/16 04:15:16;;;;;;;0.17;0.17;;;19.60;99.90;;;;;;5013858;28;20206;-83
2021/08/16 04:17:42;;;;;;;0.20;0.20;;;19.60;99.90;;;;;;5010905;28;20196;-83
2021/08/16 04:20:10;;;;;;;0.40;0.40;;;19.60;99.90;;;;;;5038340;28;20178;-83
2021/08/16 04:22:36;;;;;;;0.40;0.20;;;19.60;99.90;;;;;;5011583;28;20210;-85
2021/08/16 04:25:02;;;;;;;0.10;0.10;;;19.40;99.90;;;;;;5040323;28;20188;-85
2021/08/16 04:27:27;;;;;;;0.60;0.60;;;19.40;99.90;;;;;;5019295;28;20187;-85
2021/08/16 04:29:53;;;;;;;0.30;0.30;;;19.40;99.90;;;;;;5010032;28;20190;-86
2021/08/16 04:32:19;;;;;;;0.10;0.10;;;19.40;99.90;;;;;;5015044;28;20194;-80
2021/08/16 04:34:44;;;;;;;0.50;0.50;;;19.30;99.90;;;;;;5015074;28;20190;-82
2021/08/16 04:37:10;;;;;;;1.37;0.37;;;19.30;99.90;;;;;;5014571;28;20199;-82
2021/08/16 04:39:35;;;;;;;0.40;0.40;;;19.30;99.90;;;;;;5032759;28;20221;-81
2021/08/16 04:42:01;;;;;;;0.20;0.20;;;19.30;99.90;;;;;;5014914;28;20740;-85
2021/08/16 04:44:27;;;;;;;0.10;0.10;;;19.20;99.90;;;;;;5010986;28;20191;-82
2021/08/16 04:46:52;;;;;;;0.23;0.20;;;19.30;99.90;;;;;;5035467;28;20215;-82
2021/08/16 04:49:18;;;;;;;0.20;0.20;;;19.30;99.90;;;;;;5035974;28;20190;-82
2021/08/16 04:51:43;;;;;;;0.10;0.10;;;19.30;99.90;;;;;;5017382;28;20178;-81
2021/08/16 04:54:09;;;;;;;0.40;0.40;;;19.30;99.90;;;;;;5030758;28;20866;-83
2021/08/16 04:56:34;;;;;;;0.27;0.27;;;19.30;99.90;;;;;;5016582;28;20607;-82
2021/08/16 04:59:00;;;;;;;0.30;0.30;;;19.30;99.90;;;;;;5017112;28;20194;-82
2021/08/16 05:01:26;;;;;;;0.10;0.10;;;19.30;99.90;;;;;;5017014;28;20248;-83
2021/08/16 05:03:52;;;;;;;0.33;0.33;;;19.20;99.90;;;;;;5034431;28;20223;-81
2021/08/16 05:06:18;;;;;;;0.13;0.13;;;19.30;99.90;;;;;;5018587;28;20210;-81
2021/08/16 05:08:44;;;;;;;0.20;0.20;;;19.20;99.90;;;;;;5028980;28;20913;-82
2021/08/16 05:11:09;;;;;;;0.20;0.20;;;19.30;99.90;;;;;;5016445;28;20206;-83
2021/08/16 05:13:35;;;;;;;0.27;0.27;;;19.20;99.90;;;;;;5032349;28;20228;-82
2021/08/16 05:16:01;;;;;;;0.50;0.50;;;19.20;99.90;;;;;;5034019;28;20198;-82
2021/08/16 05:18:27;;;;;;;0.17;0.17;;;19.20;99.90;;;;;;5027122;28;20216;-82
2021/08/16 05:20:55;;;;;;;0.20;0.20;;;19.20;99.90;;;;;;5045317;28;20190;-81
2021/08/16 05:23:20;;;;;;;0.60;0.40;;;19.20;99.90;;;;;;5014767;28;20242;-81
2021/08/16 05:25:46;;;;;;;0.33;0.33;;;19.30;99.90;;;;;;5029207;28;20245;-81
2021/08/16 05:28:13;;;;;;;1.50;0.43;;;19.30;99.90;;;;;;5015227;28;20190;-81
2021/08/16 05:30:39;;;;;;;0.27;0.27;;;19.30;99.90;;;;;;5037609;28;20189;-81
2021/08/16 05:33:04;;;;;;;0.20;0.20;;;19.30;99.90;;;;;;5028014;28;20402;-82
2021/08/16 05:35:30;;;;;;;0.10;0.10;;;19.40;99.90;;;;;;5028957;28;20591;-82
2021/08/16 05:37:57;;;;;;;0.50;0.50;;;19.40;99.90;;;;;;5013897;28;20620;-82
2021/08/16 05:40:23;;;;;;;0.33;0.33;;;19.50;99.90;;;;;;5036215;28;20628;-80
2021/08/16 05:42:48;;;;;;;0.20;0.20;;;19.50;99.90;;;;;;5033118;28;20209;-82
2021/08/16 05:45:14;;;;;;;0.73;0.40;;;19.40;99.90;;;;;;5016407;28;20718;-80
2021/08/16 05:47:40;;;;;;;0.10;0.10;;;19.40;99.90;;;;;;5020355;28;20278;-81
2021/08/16 05:50:06;;;;;;;0.83;0.20;;;19.40;99.90;;;;;;5014197;28;20191;-81
2021/08/16 05:52:33;;;;;;;0.10;0.10;;;19.40;99.90;;;;;;5033115;28;20205;-82
2021/08/16 05:54:58;;;;;;;0.57;0.47;;;19.50;99.90;;;;;;5012845;28;20186;-82
2021/08/16 05:57:24;;;;;;;0.20;0.20;;;19.60;99.90;;;;;;5015161;28;20561;-82
2021/08/16 05:59:50;;;;;;;0.23;0.23;;;19.50;99.90;;;;;;5034260;28;20282;-81
2021/08/16 06:02:15;;;;;;;0.97;0.97;;;19.50;99.90;;;;;;5018106;28;20202;-80
2021/08/16 06:04:41;;;;;;;2.40;0.50;;;19.60;99.90;;;;;;5030613;28;20190;-81
2021/08/16 06:07:06;;;;;;;0.43;0.20;;;19.60;99.90;;;;;;5011510;28;20214;-81
2021/08/16 06:09:32;;;;;;;0.20;0.20;;;19.80;99.90;;;;;;5023786;28;20192;-81
2021/08/16 06:11:58;;;;;;;0.33;0.33;;;19.80;99.90;;;;;;5014134;28;20214;-81
2021/08/16 06:14:23;;;;;;;0.40;0.40;;;19.80;99.90;;;;;;5014593;28;20186;-82
2021/08/16 06:16:49;;;;;;;0.17;0.17;;;19.80;99.90;;;;;;5030777;28;20722;-80
2021/08/16 06:19:14;;;;;;;0.07;0.07;;;19.90;99.90;;;;;;5030586;28;20195;-81
2021/08/16 06:21:42;;;;;;;1.53;0.33;;;20.00;99.90;;;;;;5016728;28;20201;-82
2021/08/16 06:24:11;;;;;;;0.10;0.10;;;20.00;99.90;;;;;;5017571;28;20238;-81
2021/08/16 06:26:37;;;;;;;0.10;0.10;;;20.10;99.90;;;;;;5032442;28;20211;-82
2021/08/16 06:29:04;;;;;;;0.97;0.33;;;19.90;99.90;;;;;;5012452;28;20197;-82
2021/08/16 06:31:29;;;;;;;0.20;0.20;;;20.10;99.90;;;;;;5013784;28;20208;-82
2021/08/16 06:33:55;;;;;;;0.60;0.33;;;20.40;99.90;;;;;;5013919;28;20290;-82
2021/08/16 06:36:21;;;;;;;0.23;0.23;;;20.30;99.90;;;;;;5030490;28;20236;-80
2021/08/16 06:38:48;;;;;;;0.57;0.57;;;20.30;99.90;;;;;;5032994;28;20186;-80
2021/08/16 06:41:17;;;;;;;0.30;0.30;;;20.40;99.90;;;;;;5015295;28;20213;-81
2021/08/16 06:43:45;;;;;;;0.30;0.30;;;20.60;99.90;;;;;;5030882;28;20207;-82
2021/08/16 06:46:11;;;;;;;1.00;0.20;;;20.80;99.90;;;;;;5014720;28;20221;-80
2021/08/16 06:48:37;;;;;;;0.10;0.10;;;20.90;99.90;;;;;;5030656;28;20630;-83
2021/08/16 06:51:02;;;;;;;0.10;0.10;;;20.90;99.90;;;;;;5013809;28;20270;-81
2021/08/16 06:53:28;;;;;;;0.33;0.33;;;21.00;99.90;;;;;;5012316;28;20260;-82
2021/08/16 06:55:54;;;;;;;0.20;0.20;;;20.90;99.90;;;;;;5031084;28;20261;-82
2021/08/16 06:58:20;;;;;;;0.10;0.10;;;20.90;99.90;;;;;;5028636;28;20216;-81
2021/08/16 07:00:46;;;;;;;0.30;0.30;;;21.00;99.90;;;;;;5032581;28;20631;-81
2021/08/16 07:03:12;;;;;;;0.90;0.33;;;21.10;99.90;;;;;;5010687;28;20214;-82
2021/08/16 07:05:43;;;;;;;0.30;0.30;;;21.20;99.90;;;;;;5028704;28;20697;-82
2021/08/16 07:08:08;;;;;;;0.63;0.63;;;21.30;99.90;;;;;;5012152;28;20182;-82
2021/08/16 07:10:34;;;;;;;0.23;0.23;;;21.30;99.90;;;;;;5011973;28;20182;-82
2021/08/16 07:12:59;;;;;;;0.13;0.13;;;21.40;99.90;;;;;;5013834;28;20224;-80
2021/08/16 07:15:25;;;;;;;0.20;0.20;;;21.40;99.90;;;;;;5013728;28;20194;-80
2021/08/16 07:17:51;;;;;;;0.20;0.20;;;21.20;99.90;;;;;;5014074;28;20286;-82
2021/08/16 07:20:16;;;;;;;1.90;0.30;;;21.00;99.90;;;;;;5009545;28;20186;-82
2021/08/16 07:22:42;;;;;;;0.63;0.20;;;20.90;99.90;;;;;;5033797;28;20221;-82
2021/08/16 07:25:08;;;;;;;0.50;0.50;;;20.70;99.90;;;;;;5011816;28;20269;-81
2021/08/16 07:27:33;;;;;;;0.10;0.10;;;20.80;99.90;;;;;;5029794;28;20252;-81
2021/08/16 07:29:59;;;;;;;0.30;0.30;;;20.80;99.90;;;;;;5014081;28;20210;-82
2021/08/16 07:32:25;;;;;;;0.10;0.10;;;20.90;99.90;;;;;;5012689;28;20194;-82
2021/08/16 07:34:50;;;;;;;0.10;0.10;;;21.00;99.90;;;;;;5025762;28;20194;-82
2021/08/16 07:37:16;;;;;;;0.30;0.30;;;21.30;99.90;;;;;;5025010;28;20313;-82
2021/08/16 07:39:41;;;;;;;0.13;0.13;;;21.50;99.90;;;;;;5012088;28;20228;-81
2021/08/16 07:42:07;;;;;;;0.20;0.20;;;21.50;99.90;;;;;;5009676;28;20218;-81
2021/08/16 07:44:33;;;;;;;0.10;0.10;;;21.40;99.90;;;;;;5031568;28;20190;-81
2021/08/16 07:46:59;;;;;;;0.20;0.20;;;21.30;99.90;;;;;;5008491;28;20726;-82
2021/08/16 07:49:26;;;;;;;0.30;0.20;;;21.20;99.90;;;;;;5075901;22;20229;-85
2021/08/16 07:51:52;;;;;;;0.10;0.10;;;20.90;99.90;;;;;;5074316;28;20241;-85
2021/08/16 07:54:17;;;;;;;0.10;0.10;;;20.90;99.90;;;;;;5067044;28;20185;-85
2021/08/16 07:56:49;;;;;;;0.20;0.20;;;20.80;99.90;;;;;;5067079;28;20185;-85
2021/08/16 07:59:14;;;;;;;0.20;0.20;;;20.90;99.90;;;;;;5046826;28;20235;-83
2021/08/16 08:01:40;;;;;;;0.10;0.10;;;21.00;99.90;;;;;;5050450;28;20208;-84
2021/08/16 08:04:05;;;;;;;0.10;0.10;;;20.90;99.90;;;;;;5053750;28;20228;-84
2021/08/16 08:06:31;;;;;;;1.03;0.70;;;20.80;99.90;;;;;;5051833;28;20297;-83
2021/08/16 08:08:57;;;;;;;0.20;0.20;;;20.80;99.90;;;;;;5049009;28;20292;-82
2021/08/16 08:11:22;;;;;;;1.00;0.37;;;20.90;99.90;;;;;;5052160;28;20268;-83
2021/08/16 08:13:48;;;;;;;0.37;0.20;;;20.80;99.90;;;;;;5057124;28;20178;-82
2021/08/16 08:16:14;;;;;;;0.20;0.20;;;20.90;99.90;;;;;;5050889;28;20713;-82
2021/08/16 08:18:39;;;;;;;0.20;0.20;;;21.10;99.90;;;;;;5049223;28;20343;-82
2021/08/16 08:21:05;;;;;;;0.20;0.20;;;21.30;99.90;;;;;;5051960;28;20197;-82
2021/08/16 08:23:30;;;;;;;0.20;0.20;;;21.40;99.90;;;;;;5047909;28;20314;-82
2021/08/16 08:25:56;;;;;;;0.37;0.37;;;21.30;99.90;;;;;;5051486;28;20247;-82
2021/08/16 08:28:22;;;;;;;2.13;1.27;;;21.50;99.90;;;;;;5049228;28;20257;-82
2021/08/16 08:30:48;;;;;;;0.80;0.30;;;21.70;99.90;;;;;;5052555;28;20196;-82
2021/08/16 08:33:18;;;;;;;0.30;0.30;;;21.80;99.90;;;;;;5051125;28;20268;-82
2021/08/16 08:35:45;;;;;;;0.33;0.23;;;21.60;99.90;;;;;;5051199;28;20181;-83
2021/08/16 08:38:12;;;;;;;0.17;0.17;;;21.50;99.90;;;;;;5057560;28;20212;-82
2021/08/16 08:40:39;;;;;;;0.20;0.20;;;21.60;99.90;;;;;;5069996;28;20311;-82
2021/08/16 08:43:08;;;;;;;0.37;0.30;;;21.70;99.90;;;;;;5049359;28;20189;-83
2021/08/16 08:45:34;;;;;;;0.10;0.10;;;21.80;99.90;;;;;;5052753;28;20216;-82
2021/08/16 08:47:59;;;;;;;0.10;0.10;;;21.80;99.90;;;;;;5051244;28;20214;-83
2021/08/16 08:50:26;;;;;;;0.10;0.10;;;21.80;99.90;;;;;;5052750;28;20190;-82
2021/08/16 08:52:56;;;;;;;0.20;0.20;;;21.90;99.90;;;;;;5052757;28;20178;-82
2021/08/16 08:55:22;;;;;;;0.20;0.20;;;21.90;99.90;;;;;;5053081;28;20185;-84
2021/08/16 08:57:47;;;;;;;0.33;0.33;;;21.80;99.90;;;;;;5051988;28;20219;-84
2021/08/16 09:00:16;;;;;;;0.60;0.30;;;21.60;99.90;;;;;;5050355;28;20182;-85
2021/08/16 09:03:02;;;;;;;0.20;0.20;;;21.50;99.90;;;;;;5047494;28;20248;-84
2021/08/16 09:05:28;;;;;;;0.20;0.20;;;21.40;99.90;;;;;;5051625;28;20205;-83
2021/08/16 09:07:58;;;;;;;0.20;0.20;;;21.50;99.90;;;;;;5049516;28;20297;-82
2021/08/16 09:10:27;;;;;;;0.30;0.30;;;21.60;99.90;;;;;;5048680;28;20284;-83
2021/08/16 09:12:59;;;;;;;0.10;0.10;;;21.90;99.90;;;;;;5050496;28;20273;-83
2021/08/16 09:15:26;;;;;;;0.50;0.40;;;22.10;99.90;;;;;;5050958;28;20269;-85
2021/08/16 09:17:52;;;;;;;0.30;0.30;;;22.10;99.90;;;;;;5049724;28;20229;-85
2021/08/16 09:20:21;;;;;;;0.17;0.17;;;22.10;99.90;;;;;;5052468;28;20190;-85
2021/08/16 09:22:57;;;;;;;0.20;0.20;;;22.20;99.90;;;;;;5049606;28;20204;-85
2021/08/16 09:25:24;;;;;;;0.17;0.17;;;22.40;99.90;;;;;;5046881;28;20634;-85
2021/08/16 09:27:49;;;;;;;0.20;0.20;;;22.50;99.90;;;;;;5053621;28;20201;-84
2021/08/16 09:30:16;;;;;;;0.57;0.20;;;22.40;99.90;;;;;;5055502;28;20186;-85
2021/08/16 09:32:44;;;;;;;0.30;0.30;;;22.30;99.90;;;;;;5049504;28;20190;-85
2021/08/16 09:35:14;;;;;;;0.30;0.30;;;22.00;99.90;;;;;;5049998;28;20232;-84
2021/08/16 09:37:41;;;;;;;0.30;0.30;;;21.80;99.90;;;;;;5050862;28;20597;-85
2021/08/16 09:40:15;;;;;;;0.60;0.50;;;22.00;99.90;;;;;;5050520;28;20261;-85
2021/08/16 09:42:49;;;;;;;0.30;0.30;;;22.10;99.90;;;;;;5046533;28;20550;-84
2021/08/16 09:45:38;;;;;;;0.20;0.20;;;22.20;99.90;;;;;;5053164;28;20201;-85
2021/08/16 09:48:07;;;;;;;0.20;0.20;;;22.20;99.90;;;;;;5065632;28;20781;-84
2021/08/16 09:50:40;;;;;;;0.13;0.13;;;22.30;99.90;;;;;;5053403;28;20185;-83
2021/08/16 09:53:16;;;;;;;0.57;0.17;;;22.40;99.90;;;;;;5051751;28;20259;-83
2021/08/16 09:55:44;;;;;;;0.93;0.50;;;22.40;99.90;;;;;;5050898;28;20182;-83
2021/08/16 09:58:14;;;;;;;0.17;0.17;;;22.20;99.90;;;;;;5052140;28;20268;-86
2021/08/16 10:00:42;;;;;;;0.13;0.13;;;22.00;99.90;;;;;;5046042;28;20182;-85
2021/08/16 10:03:08;;;;;;;0.10;0.10;;;22.10;99.90;;;;;;5051667;28;20279;-85
2021/08/16 10:05:40;;;;;;;0.60;0.60;;;22.30;99.90;;;;;;5051595;28;20557;-85
2021/08/16 10:08:11;;;;;;;0.20;0.20;;;22.50;99.90;;;;;;5049594;28;20217;-84
2021/08/16 10:10:38;;;;;;;0.10;0.10;;;22.40;99.90;;;;;;5050835;28;20550;-85
2021/08/16 10:13:06;;;;;;;0.33;0.33;;;22.90;99.90;;;;;;5049552;28;20187;-85
2021/08/16 10:15:42;;;;;;;0.20;0.20;;;23.10;99.90;;;;;;5048860;28;20178;-85
2021/08/16 10:18:21;;;;;;;0.33;0.33;;;23.20;99.90;;;;;;5050168;28;20212;-85
2021/08/16 10:20:48;;;;;;;0.33;0.33;;;23.00;99.90;;;;;;5048403;28;20190;-86
2021/08/16 10:23:21;;;;;;;0.40;0.40;;;22.80;99.90;;;;;;5046240;28;20229;-85
2021/08/16 10:25:50;;;;;;;0.97;0.40;;;22.80;99.90;;;;;;5048919;28;20213;-86
2021/08/16 10:28:32;;;;;;;0.43;0.27;;;22.50;99.90;;;;;;5051441;28;20235;-84
2021/08/16 10:31:01;;;;;;;0.40;0.40;;;22.30;99.90;;;;;;5052107;28;20561;-85
2021/08/16 10:33:26;;;;;;;0.83;0.10;;;22.10;99.90;;;;;;5048137;28;20729;-86
2021/08/16 10:35:53;;;;;;;0.50;0.40;;;22.00;99.90;;;;;;5052265;28;20264;-85
2021/08/16 10:38:20;;;;;;;0.20;0.20;;;21.80;99.90;;;;;;5042599;28;20241;-86
2021/08/16 10:40:56;;;;;;;0.20;0.20;;;22.00;99.90;;;;;;5043394;28;20647;-86
2021/08/16 10:43:22;;;;;;;0.13;0.13;;;22.00;99.90;;;;;;5049231;28;20193;-86
2021/08/16 10:45:52;;;;;;;0.30;0.30;;;22.10;99.90;;;;;;5043260;28;20716;-84
2021/08/16 10:48:34;;;;;;;0.33;0.33;;;22.20;99.90;;;;;;5037766;28;20221;-85
2021/08/16 10:51:09;;;;;;;0.20;0.20;;;22.10;99.90;;;;;;5044717;28;20238;-84
2021/08/16 10:53:53;;;;;;;0.20;0.20;;;22.00;99.90;;;;;;5048054;28;20181;-85
2021/08/16 10:56:23;;;;;;;0.20;0.20;;;21.90;99.90;;;;;;5046789;28;20185;-85
2021/08/16 10:58:50;;;;;;;1.17;0.63;;;21.80;99.90;;;;;;5042571;28;20214;-85
2021/08/16 11:01:34;;;;;;;0.80;0.80;;;21.80;99.90;;;;;;5049778;28;20193;-85
2021/08/16 11:04:04;;;;;;;0.27;0.27;;;21.80;99.90;;;;;;5049697;28;20670;-86
2021/08/16 11:06:31;;;;;;;0.30;0.30;;;21.80;99.90;;;;;;5046378;28;20340;-85
2021/08/16 11:08:58;;;;;;;1.20;0.60;;;21.70;99.90;;;;;;5044830;28;20208;-84
2021/08/16 11:11:24;;;;;;;0.73;0.30;;;21.50;99.90;;;;;;5048649;28;20198;-85
2021/08/16 11:13:50;;;;;;;1.93;0.50;;;21.70;99.90;;;;;;5047891;28;20181;-84
2021/08/16 11:16:15;;;;;;;2.43;0.73;;;22.50;99.90;;;;;;5050576;28;20200;-82
2021/08/16 11:18:52;;;;;;;0.30;0.30;;;23.00;99.90;;;;;;5054557;28;20208;-83
2021/08/16 11:21:21;;;;;;;0.57;0.50;;;23.40;99.90;;;;;;5054196;28;20686;-83
2021/08/16 11:23:56;;;;;;;0.20;0.20;;;23.60;99.90;;;;;;5046800;28;20272;-84
2021/08/16 11:26:21;;;;;;;0.30;0.30;;;23.70;99.90;;;;;;5049043;28;20215;-83
2021/08/16 11:28:47;;;;;;;0.20;0.20;;;23.80;99.90;;;;;;5046623;28;20685;-85
2021/08/16 11:31:13;;;;;;;0.30;0.30;;;23.70;99.90;;;;;;5045672;28;20669;-84
2021/08/16 11:33:39;;;;;;;0.20;0.20;;;23.60;99.90;;;;;;5047680;28;20186;-84
2021/08/16 11:36:07;;;;;;;0.20;0.20;;;23.70;99.90;;;;;;5045364;28;20188;-85
2021/08/16 11:38:33;;;;;;;0.37;0.37;;;23.70;99.90;;;;;;5046911;28;20240;-84
2021/08/16 11:41:13;;;;;;;0.50;0.50;;;23.50;99.90;;;;;;5050288;28;20654;-86
2021/08/16 11:43:39;;;;;;;0.87;0.60;;;23.40;99.90;;;;;;5044256;28;20195;-86
2021/08/16 11:46:16;;;;;;;0.23;0.23;;;23.20;99.90;;;;;;5050009;28;20313;-86
2021/08/16 11:48:49;;;;;;;0.30;0.30;;;22.90;99.90;;;;;;5063510;28;20212;-86
2021/08/16 11:51:15;;;;;;;0.37;0.37;;;23.20;99.90;;;;;;5071360;28;20199;-85
2021/08/16 11:53:46;;;;;;;0.40;0.33;;;23.50;99.90;;;;;;5052797;28;20189;-87
2021/08/16 11:56:12;;;;;;;0.37;0.37;;;23.50;99.90;;;;;;5053282;28;20268;-87
2021/08/16 11:58:40;;;;;;;0.57;0.30;;;23.40;99.90;;;;;;5053409;28;20216;-87
2021/08/16 12:01:08;;;;;;;0.30;0.30;;;23.80;99.90;;;;;;5052857;28;20192;-86
2021/08/16 12:03:34;;;;;;;0.30;0.30;;;23.70;99.90;;;;;;5048971;28;20213;-87
2021/08/16 12:06:09;;;;;;;0.30;0.30;;;23.70;99.90;;;;;;5052966;28;20261;-86
2021/08/16 12:08:35;;;;;;;0.30;0.30;;;23.70;99.90;;;;;;5058430;28;20620;-87
2021/08/16 12:11:12;;;;;;;1.80;0.60;;;23.60;99.90;;;;;;5069335;28;20201;-88
2021/08/16 12:13:38;;;;;;;0.20;0.20;;;23.50;99.90;;;;;;5061216;28;20191;-86
2021/08/16 12:16:05;;;;;;;0.20;0.20;;;23.20;99.90;;;;;;5070254;28;20293;-87
2021/08/16 12:18:33;;;;;;;0.10;0.10;;;23.00;99.90;;;;;;5071186;28;20212;-87
2021/08/16 12:20:59;;;;;;;0.23;0.23;;;23.00;99.90;;;;;;5054955;28;20298;-87
2021/08/16 12:23:34;;;;;;;0.20;0.20;;;22.90;99.90;;;;;;5067738;28;20189;-86
2021/08/16 12:26:01;;;;;;;0.20;0.20;;;22.90;99.90;;;;;;5053334;28;20204;-86
2021/08/16 12:28:44;;;;;;;0.20;0.20;;;22.80;99.90;;;;;;5051795;28;20291;-86
2021/08/16 12:31:21;;;;;;;0.20;0.20;;;22.90;99.90;;;;;;5045765;28;20562;-87
2021/08/16 12:33:56;;;;;;;0.30;0.30;;;22.90;99.90;;;;;;5052226;28;20271;-87
2021/08/16 12:36:27;;;;;;;0.23;0.23;;;23.20;99.90;;;;;;5063670;28;20212;-87
2021/08/16 12:39:06;;;;;;;0.30;0.30;;;23.00;99.90;;;;;;5062400;28;20213;-87
2021/08/16 12:41:33;;;;;;;0.17;0.17;;;23.20;99.90;;;;;;5051190;28;20184;-86
2021/08/16 12:44:00;;;;;;;0.30;0.30;;;23.40;99.90;;;;;;5069039;28;20227;-87
2021/08/16 12:46:33;;;;;;;0.50;0.50;;;23.80;99.90;;;;;;5054704;28;20205;-87
2021/08/16 12:49:00;;;;;;;0.23;0.23;;;24.20;99.90;;;;;;5070759;28;20239;-87